sensor_id;sensor_type;location;lat;lon;timestamp;P1;durP1;ratioP1;P2;durP2;ratioP2
66145;SDS011;52948;60.040;30.320;2023-05-10T00:03:25;8.32;;;3.50;;
66145;SDS011;52948;60.040;30.320;2023-05-10T00:08:27;8.05;;;3.67;;
66145;SDS011;52948;60.040;30.320;2023-05-10T00:13:29;8.93;;;3.38;;
66145;SDS011;52948;60.040;30.320;2023-05-10T00:18:31;8.85;;;3.60;;
66145;SDS011;52948;60.040;30.320;2023-05-10T00:23:34;5.28;;;3.05;;
66145;SDS011;52948;60.040;30.320;2023-05-10T00:28:37;8.15;;;3.15;;
66145;SDS011;52948;60.040;30.320;2023-05-10T00:33:39;10.00;;;3.78;;
66145;SDS011;52948;60.040;30.320;2023-05-10T00:38:41;9.25;;;3.97;;
66145;SDS011;52948;60.040;30.320;2023-05-10T00:43:43;9.18;;;4.10;;
66145;SDS011;52948;60.040;30.320;2023-05-10T00:48:46;6.05;;;4.20;;
66145;SDS011;52948;60.040;30.320;2023-05-10T00:53:48;10.32;;;4.13;;
66145;SDS011;52948;60.040;30.320;2023-05-10T00:58:50;13.02;;;4.55;;
66145;SDS011;52948;60.040;30.320;2023-05-10T01:03:52;7.28;;;3.60;;
66145;SDS011;52948;60.040;30.320;2023-05-10T01:08:55;8.23;;;4.18;;
66145;SDS011;52948;60.040;30.320;2023-05-10T01:13:57;6.38;;;3.50;;
66145;SDS011;52948;60.040;30.320;2023-05-10T01:19:00;6.25;;;3.53;;
66145;SDS011;52948;60.040;30.320;2023-05-10T01:24:12;7.72;;;3.70;;
66145;SDS011;52948;60.040;30.320;2023-05-10T01:29:25;5.57;;;3.22;;
66145;SDS011;52948;60.040;30.320;2023-05-10T01:34:34;9.18;;;3.88;;
66145;SDS011;52948;60.040;30.320;2023-05-10T01:39:45;9.30;;;3.40;;
66145;SDS011;52948;60.040;30.320;2023-05-10T01:50:22;6.28;;;3.72;;
66145;SDS011;52948;60.040;30.320;2023-05-10T01:55:30;6.43;;;3.60;;
66145;SDS011;52948;60.040;30.320;2023-05-10T02:00:34;7.32;;;3.38;;
66145;SDS011;52948;60.040;30.320;2023-05-10T02:05:37;8.23;;;3.25;;
66145;SDS011;52948;60.040;30.320;2023-05-10T02:10:40;6.05;;;3.63;;
66145;SDS011;52948;60.040;30.320;2023-05-10T02:15:43;11.27;;;3.72;;
66145;SDS011;52948;60.040;30.320;2023-05-10T02:20:49;9.55;;;4.10;;
66145;SDS011;52948;60.040;30.320;2023-05-10T02:25:55;7.35;;;4.20;;
66145;SDS011;52948;60.040;30.320;2023-05-10T02:30:59;9.38;;;4.60;;
66145;SDS011;52948;60.040;30.320;2023-05-10T02:36:01;9.02;;;3.92;;
66145;SDS011;52948;60.040;30.320;2023-05-10T02:41:06;9.35;;;5.50;;
66145;SDS011;52948;60.040;30.320;2023-05-10T02:46:15;7.15;;;4.53;;
66145;SDS011;52948;60.040;30.320;2023-05-10T02:51:17;8.05;;;4.45;;
66145;SDS011;52948;60.040;30.320;2023-05-10T02:56:23;9.82;;;4.68;;
66145;SDS011;52948;60.040;30.320;2023-05-10T03:01:30;8.68;;;3.70;;
66145;SDS011;52948;60.040;30.320;2023-05-10T03:06:33;9.27;;;4.32;;
66145;SDS011;52948;60.040;30.320;2023-05-10T03:17:15;8.70;;;3.70;;
66145;SDS011;52948;60.040;30.320;2023-05-10T03:22:21;13.05;;;5.43;;
66145;SDS011;52948;60.040;30.320;2023-05-10T03:27:29;10.38;;;4.95;;
66145;SDS011;52948;60.040;30.320;2023-05-10T03:32:32;12.50;;;6.15;;
66145;SDS011;52948;60.040;30.320;2023-05-10T03:37:36;9.93;;;5.68;;
66145;SDS011;52948;60.040;30.320;2023-05-10T03:42:38;14.35;;;7.40;;
66145;SDS011;52948;60.040;30.320;2023-05-10T03:47:41;10.10;;;6.65;;
66145;SDS011;52948;60.040;30.320;2023-05-10T03:52:43;13.55;;;6.80;;
66145;SDS011;52948;60.040;30.320;2023-05-10T03:57:46;11.07;;;6.22;;
66145;SDS011;52948;60.040;30.320;2023-05-10T04:02:51;13.75;;;6.28;;
66145;SDS011;52948;60.040;30.320;2023-05-10T04:07:55;11.60;;;5.68;;
66145;SDS011;52948;60.040;30.320;2023-05-10T04:12:57;13.98;;;4.88;;
66145;SDS011;52948;60.040;30.320;2023-05-10T04:17:59;9.30;;;5.13;;
66145;SDS011;52948;60.040;30.320;2023-05-10T04:23:02;8.88;;;3.67;;
66145;SDS011;52948;60.040;30.320;2023-05-10T04:28:04;7.03;;;4.60;;
66145;SDS011;52948;60.040;30.320;2023-05-10T04:33:06;5.68;;;3.63;;
66145;SDS011;52948;60.040;30.320;2023-05-10T04:38:08;7.20;;;4.05;;
66145;SDS011;52948;60.040;30.320;2023-05-10T04:43:11;4.72;;;3.75;;
66145;SDS011;52948;60.040;30.320;2023-05-10T04:48:13;6.75;;;4.47;;
66145;SDS011;52948;60.040;30.320;2023-05-10T04:53:15;9.90;;;4.00;;
66145;SDS011;52948;60.040;30.320;2023-05-10T04:58:17;26.67;;;4.85;;
66145;SDS011;52948;60.040;30.320;2023-05-10T05:03:20;7.43;;;4.68;;
66145;SDS011;52948;60.040;30.320;2023-05-10T05:08:27;12.60;;;4.28;;
66145;SDS011;52948;60.040;30.320;2023-05-10T05:13:29;7.80;;;4.10;;
66145;SDS011;52948;60.040;30.320;2023-05-10T05:18:32;7.65;;;3.67;;
66145;SDS011;52948;60.040;30.320;2023-05-10T05:23:35;7.45;;;3.58;;
66145;SDS011;52948;60.040;30.320;2023-05-10T05:28:37;6.68;;;3.08;;
66145;SDS011;52948;60.040;30.320;2023-05-10T05:33:40;8.23;;;3.13;;
66145;SDS011;52948;60.040;30.320;2023-05-10T05:38:42;7.03;;;2.92;;
66145;SDS011;52948;60.040;30.320;2023-05-10T05:43:44;6.95;;;2.65;;
66145;SDS011;52948;60.040;30.320;2023-05-10T05:48:47;4.60;;;3.35;;
66145;SDS011;52948;60.040;30.320;2023-05-10T05:53:49;6.95;;;4.05;;
66145;SDS011;52948;60.040;30.320;2023-05-10T05:58:51;9.82;;;3.20;;
66145;SDS011;52948;60.040;30.320;2023-05-10T06:03:53;7.22;;;3.75;;
66145;SDS011;52948;60.040;30.320;2023-05-10T06:08:55;9.57;;;4.15;;
66145;SDS011;52948;60.040;30.320;2023-05-10T06:13:58;5.88;;;3.65;;
66145;SDS011;52948;60.040;30.320;2023-05-10T06:19:01;5.65;;;3.75;;
66145;SDS011;52948;60.040;30.320;2023-05-10T06:24:06;8.57;;;3.45;;
66145;SDS011;52948;60.040;30.320;2023-05-10T06:29:09;7.38;;;3.38;;
66145;SDS011;52948;60.040;30.320;2023-05-10T06:34:11;4.53;;;2.70;;
66145;SDS011;52948;60.040;30.320;2023-05-10T06:39:14;8.20;;;2.33;;
66145;SDS011;52948;60.040;30.320;2023-05-10T06:44:16;4.20;;;2.22;;
66145;SDS011;52948;60.040;30.320;2023-05-10T06:49:23;3.75;;;1.95;;
66145;SDS011;52948;60.040;30.320;2023-05-10T06:54:25;3.42;;;2.15;;
66145;SDS011;52948;60.040;30.320;2023-05-10T06:59:31;4.82;;;2.00;;
66145;SDS011;52948;60.040;30.320;2023-05-10T07:04:33;4.70;;;2.28;;
66145;SDS011;52948;60.040;30.320;2023-05-10T07:09:35;4.88;;;2.40;;
66145;SDS011;52948;60.040;30.320;2023-05-10T07:14:41;5.32;;;2.10;;
66145;SDS011;52948;60.040;30.320;2023-05-10T07:19:43;3.45;;;2.00;;
66145;SDS011;52948;60.040;30.320;2023-05-10T07:24:46;2.35;;;1.65;;
66145;SDS011;52948;60.040;30.320;2023-05-10T07:29:53;2.03;;;1.83;;
66145;SDS011;52948;60.040;30.320;2023-05-10T07:34:56;1.52;;;1.42;;
66145;SDS011;52948;60.040;30.320;2023-05-10T07:39:58;3.22;;;1.85;;
66145;SDS011;52948;60.040;30.320;2023-05-10T07:45:01;4.38;;;1.60;;
66145;SDS011;52948;60.040;30.320;2023-05-10T07:50:05;2.75;;;1.70;;
66145;SDS011;52948;60.040;30.320;2023-05-10T07:55:08;2.70;;;1.80;;
66145;SDS011;52948;60.040;30.320;2023-05-10T08:00:12;2.17;;;1.70;;
66145;SDS011;52948;60.040;30.320;2023-05-10T08:05:15;1.87;;;1.60;;
66145;SDS011;52948;60.040;30.320;2023-05-10T08:10:17;2.75;;;1.75;;
66145;SDS011;52948;60.040;30.320;2023-05-10T08:15:19;3.15;;;1.70;;
66145;SDS011;52948;60.040;30.320;2023-05-10T08:20:22;3.83;;;1.70;;
66145;SDS011;52948;60.040;30.320;2023-05-10T08:25:24;2.17;;;1.60;;
66145;SDS011;52948;60.040;30.320;2023-05-10T08:30:26;4.57;;;1.80;;
66145;SDS011;52948;60.040;30.320;2023-05-10T08:35:29;4.10;;;1.80;;
66145;SDS011;52948;60.040;30.320;2023-05-10T08:40:31;2.53;;;1.52;;
66145;SDS011;52948;60.040;30.320;2023-05-10T08:45:38;3.05;;;1.80;;
66145;SDS011;52948;60.040;30.320;2023-05-10T08:50:41;1.92;;;1.70;;
66145;SDS011;52948;60.040;30.320;2023-05-10T08:55:45;3.15;;;1.70;;
66145;SDS011;52948;60.040;30.320;2023-05-10T09:00:48;3.40;;;2.13;;
66145;SDS011;52948;60.040;30.320;2023-05-10T09:05:53;1.83;;;1.60;;
66145;SDS011;52948;60.040;30.320;2023-05-10T09:10:55;3.45;;;2.30;;
66145;SDS011;52948;60.040;30.320;2023-05-10T09:15:58;3.40;;;1.60;;
66145;SDS011;52948;60.040;30.320;2023-05-10T09:21:00;2.45;;;1.80;;
66145;SDS011;52948;60.040;30.320;2023-05-10T09:26:04;6.45;;;2.40;;
66145;SDS011;52948;60.040;30.320;2023-05-10T09:31:07;4.13;;;2.03;;
66145;SDS011;52948;60.040;30.320;2023-05-10T09:36:09;4.47;;;1.92;;
66145;SDS011;52948;60.040;30.320;2023-05-10T09:41:23;2.15;;;1.90;;
66145;SDS011;52948;60.040;30.320;2023-05-10T09:46:26;2.88;;;2.10;;
66145;SDS011;52948;60.040;30.320;2023-05-10T09:52:05;5.93;;;2.00;;
66145;SDS011;52948;60.040;30.320;2023-05-10T09:57:10;2.90;;;1.70;;
66145;SDS011;52948;60.040;30.320;2023-05-10T10:02:21;3.22;;;2.08;;
66145;SDS011;52948;60.040;30.320;2023-05-10T10:07:30;2.40;;;1.80;;
66145;SDS011;52948;60.040;30.320;2023-05-10T10:12:33;3.38;;;1.60;;
66145;SDS011;52948;60.040;30.320;2023-05-10T10:17:36;2.95;;;1.70;;
66145;SDS011;52948;60.040;30.320;2023-05-10T10:22:40;5.22;;;1.73;;
66145;SDS011;52948;60.040;30.320;2023-05-10T10:38:04;4.32;;;2.22;;
66145;SDS011;52948;60.040;30.320;2023-05-10T10:43:25;1.73;;;1.63;;
66145;SDS011;52948;60.040;30.320;2023-05-10T10:48:28;4.30;;;1.52;;
66145;SDS011;52948;60.040;30.320;2023-05-10T10:53:31;10.57;;;5.63;;
66145;SDS011;52948;60.040;30.320;2023-05-10T10:58:34;20.92;;;10.32;;
66145;SDS011;52948;60.040;30.320;2023-05-10T11:03:36;6.45;;;3.17;;
66145;SDS011;52948;60.040;30.320;2023-05-10T11:08:42;3.15;;;2.58;;
66145;SDS011;52948;60.040;30.320;2023-05-10T11:13:47;1.58;;;1.48;;
66145;SDS011;52948;60.040;30.320;2023-05-10T11:19:09;2.00;;;1.80;;
66145;SDS011;52948;60.040;30.320;2023-05-10T11:24:17;2.25;;;1.92;;
66145;SDS011;52948;60.040;30.320;2023-05-10T11:29:21;3.83;;;1.75;;
66145;SDS011;52948;60.040;30.320;2023-05-10T11:34:24;2.15;;;1.45;;
66145;SDS011;52948;60.040;30.320;2023-05-10T11:39:27;2.83;;;1.65;;
66145;SDS011;52948;60.040;30.320;2023-05-10T11:44:30;4.53;;;1.65;;
66145;SDS011;52948;60.040;30.320;2023-05-10T11:49:35;3.72;;;1.40;;
66145;SDS011;52948;60.040;30.320;2023-05-10T11:54:44;2.75;;;1.40;;
66145;SDS011;52948;60.040;30.320;2023-05-10T11:59:52;1.73;;;1.50;;
66145;SDS011;52948;60.040;30.320;2023-05-10T12:04:55;1.95;;;1.38;;
66145;SDS011;52948;60.040;30.320;2023-05-10T12:10:10;8.60;;;2.22;;
66145;SDS011;52948;60.040;30.320;2023-05-10T12:15:23;2.65;;;1.20;;
66145;SDS011;52948;60.040;30.320;2023-05-10T12:20:27;2.38;;;1.30;;
66145;SDS011;52948;60.040;30.320;2023-05-10T12:25:30;2.83;;;1.90;;
66145;SDS011;52948;60.040;30.320;2023-05-10T12:30:34;2.85;;;1.60;;
66145;SDS011;52948;60.040;30.320;2023-05-10T12:36:11;6.93;;;1.92;;
66145;SDS011;52948;60.040;30.320;2023-05-10T12:41:06;4.90;;;1.40;;
66145;SDS011;52948;60.040;30.320;2023-05-10T12:46:13;1.83;;;1.40;;
66145;SDS011;52948;60.040;30.320;2023-05-10T12:51:16;4.00;;;1.77;;
66145;SDS011;52948;60.040;30.320;2023-05-10T12:56:21;2.97;;;2.10;;
66145;SDS011;52948;60.040;30.320;2023-05-10T13:01:23;2.38;;;1.60;;
66145;SDS011;52948;60.040;30.320;2023-05-10T13:06:25;3.50;;;1.58;;
66145;SDS011;52948;60.040;30.320;2023-05-10T13:11:28;1.75;;;1.50;;
66145;SDS011;52948;60.040;30.320;2023-05-10T13:16:31;3.47;;;1.73;;
66145;SDS011;52948;60.040;30.320;2023-05-10T13:21:33;1.58;;;1.20;;
66145;SDS011;52948;60.040;30.320;2023-05-10T13:26:35;1.88;;;1.45;;
66145;SDS011;52948;60.040;30.320;2023-05-10T13:31:38;2.97;;;1.25;;
66145;SDS011;52948;60.040;30.320;2023-05-10T13:36:40;1.90;;;1.40;;
66145;SDS011;52948;60.040;30.320;2023-05-10T13:41:43;1.40;;;1.30;;
66145;SDS011;52948;60.040;30.320;2023-05-10T13:46:45;1.88;;;1.40;;
66145;SDS011;52948;60.040;30.320;2023-05-10T13:51:47;2.35;;;1.50;;
66145;SDS011;52948;60.040;30.320;2023-05-10T13:56:49;1.42;;;1.30;;
66145;SDS011;52948;60.040;30.320;2023-05-10T14:01:52;3.58;;;1.80;;
66145;SDS011;52948;60.040;30.320;2023-05-10T14:06:54;7.40;;;1.48;;
66145;SDS011;52948;60.040;30.320;2023-05-10T14:11:56;1.38;;;1.27;;
66145;SDS011;52948;60.040;30.320;2023-05-10T14:16:59;2.15;;;1.40;;
66145;SDS011;52948;60.040;30.320;2023-05-10T14:22:02;5.43;;;1.75;;
66145;SDS011;52948;60.040;30.320;2023-05-10T14:27:04;2.92;;;1.40;;
66145;SDS011;52948;60.040;30.320;2023-05-10T14:32:07;2.55;;;2.05;;
66145;SDS011;52948;60.040;30.320;2023-05-10T14:37:10;3.28;;;1.40;;
66145;SDS011;52948;60.040;30.320;2023-05-10T14:42:13;4.68;;;1.48;;
66145;SDS011;52948;60.040;30.320;2023-05-10T14:47:15;2.92;;;1.50;;
66145;SDS011;52948;60.040;30.320;2023-05-10T14:58:35;2.65;;;1.30;;
66145;SDS011;52948;60.040;30.320;2023-05-10T15:03:37;1.52;;;1.30;;
66145;SDS011;52948;60.040;30.320;2023-05-10T15:08:40;2.42;;;1.23;;
66145;SDS011;52948;60.040;30.320;2023-05-10T15:13:42;1.98;;;1.40;;
66145;SDS011;52948;60.040;30.320;2023-05-10T15:18:45;2.85;;;1.50;;
66145;SDS011;52948;60.040;30.320;2023-05-10T15:23:47;3.50;;;1.52;;
66145;SDS011;52948;60.040;30.320;2023-05-10T15:28:49;3.05;;;1.60;;
66145;SDS011;52948;60.040;30.320;2023-05-10T15:33:55;4.18;;;1.23;;
66145;SDS011;52948;60.040;30.320;2023-05-10T15:38:58;2.53;;;1.60;;
66145;SDS011;52948;60.040;30.320;2023-05-10T15:44:01;1.98;;;1.50;;
66145;SDS011;52948;60.040;30.320;2023-05-10T15:49:06;2.53;;;1.70;;
66145;SDS011;52948;60.040;30.320;2023-05-10T15:54:08;1.50;;;1.40;;
66145;SDS011;52948;60.040;30.320;2023-05-10T15:59:11;3.40;;;1.40;;
66145;SDS011;52948;60.040;30.320;2023-05-10T16:04:13;4.10;;;1.50;;
66145;SDS011;52948;60.040;30.320;2023-05-10T16:09:15;2.08;;;1.40;;
66145;SDS011;52948;60.040;30.320;2023-05-10T16:14:17;2.40;;;1.50;;
66145;SDS011;52948;60.040;30.320;2023-05-10T16:19:22;2.85;;;1.80;;
66145;SDS011;52948;60.040;30.320;2023-05-10T16:24:24;1.60;;;1.50;;
66145;SDS011;52948;60.040;30.320;2023-05-10T16:29:27;2.70;;;1.50;;
66145;SDS011;52948;60.040;30.320;2023-05-10T16:34:29;3.22;;;1.58;;
66145;SDS011;52948;60.040;30.320;2023-05-10T16:39:31;5.03;;;1.88;;
66145;SDS011;52948;60.040;30.320;2023-05-10T16:44:34;3.75;;;1.77;;
66145;SDS011;52948;60.040;30.320;2023-05-10T16:49:37;4.28;;;1.60;;
66145;SDS011;52948;60.040;30.320;2023-05-10T16:54:39;3.55;;;1.70;;
66145;SDS011;52948;60.040;30.320;2023-05-10T16:59:41;4.90;;;2.03;;
66145;SDS011;52948;60.040;30.320;2023-05-10T17:04:44;2.13;;;1.63;;
66145;SDS011;52948;60.040;30.320;2023-05-10T17:09:46;3.28;;;1.90;;
66145;SDS011;52948;60.040;30.320;2023-05-10T17:14:48;4.90;;;2.20;;
66145;SDS011;52948;60.040;30.320;2023-05-10T17:19:51;2.65;;;1.80;;
66145;SDS011;52948;60.040;30.320;2023-05-10T17:24:53;3.03;;;2.00;;
66145;SDS011;52948;60.040;30.320;2023-05-10T17:35:27;6.07;;;2.17;;
66145;SDS011;52948;60.040;30.320;2023-05-10T17:40:31;3.10;;;2.28;;
66145;SDS011;52948;60.040;30.320;2023-05-10T17:45:33;3.53;;;1.95;;
66145;SDS011;52948;60.040;30.320;2023-05-10T17:50:36;6.18;;;1.85;;
66145;SDS011;52948;60.040;30.320;2023-05-10T17:55:44;4.75;;;1.80;;
66145;SDS011;52948;60.040;30.320;2023-05-10T18:00:46;3.10;;;1.27;;
66145;SDS011;52948;60.040;30.320;2023-05-10T18:05:48;2.78;;;1.50;;
66145;SDS011;52948;60.040;30.320;2023-05-10T18:10:50;3.10;;;1.77;;
66145;SDS011;52948;60.040;30.320;2023-05-10T18:15:53;6.45;;;2.03;;
66145;SDS011;52948;60.040;30.320;2023-05-10T18:20:55;6.07;;;2.05;;
66145;SDS011;52948;60.040;30.320;2023-05-10T18:25:58;2.13;;;1.80;;
66145;SDS011;52948;60.040;30.320;2023-05-10T18:31:04;3.22;;;1.50;;
66145;SDS011;52948;60.040;30.320;2023-05-10T18:36:06;5.55;;;2.22;;
66145;SDS011;52948;60.040;30.320;2023-05-10T18:41:08;2.35;;;2.15;;
66145;SDS011;52948;60.040;30.320;2023-05-10T18:46:13;3.13;;;1.98;;
66145;SDS011;52948;60.040;30.320;2023-05-10T18:51:18;4.47;;;2.08;;
66145;SDS011;52948;60.040;30.320;2023-05-10T18:56:22;6.35;;;3.00;;
66145;SDS011;52948;60.040;30.320;2023-05-10T19:01:25;4.72;;;2.33;;
66145;SDS011;52948;60.040;30.320;2023-05-10T19:06:27;3.90;;;2.40;;
66145;SDS011;52948;60.040;30.320;2023-05-10T19:11:29;9.23;;;2.30;;
66145;SDS011;52948;60.040;30.320;2023-05-10T19:16:34;4.65;;;2.30;;
66145;SDS011;52948;60.040;30.320;2023-05-10T19:21:40;4.32;;;2.42;;
66145;SDS011;52948;60.040;30.320;2023-05-10T19:26:43;5.75;;;2.10;;
66145;SDS011;52948;60.040;30.320;2023-05-10T19:31:45;2.92;;;1.88;;
66145;SDS011;52948;60.040;30.320;2023-05-10T19:36:47;3.33;;;1.92;;
66145;SDS011;52948;60.040;30.320;2023-05-10T19:41:50;7.53;;;2.40;;
66145;SDS011;52948;60.040;30.320;2023-05-10T19:46:52;2.53;;;1.98;;
66145;SDS011;52948;60.040;30.320;2023-05-10T19:51:55;8.73;;;2.92;;
66145;SDS011;52948;60.040;30.320;2023-05-10T19:56:57;4.78;;;2.17;;
66145;SDS011;52948;60.040;30.320;2023-05-10T20:01:59;2.88;;;2.30;;
66145;SDS011;52948;60.040;30.320;2023-05-10T20:07:01;7.28;;;2.90;;
66145;SDS011;52948;60.040;30.320;2023-05-10T20:12:04;7.70;;;3.58;;
66145;SDS011;52948;60.040;30.320;2023-05-10T20:17:06;3.88;;;2.92;;
66145;SDS011;52948;60.040;30.320;2023-05-10T20:22:08;4.97;;;3.13;;
66145;SDS011;52948;60.040;30.320;2023-05-10T20:27:11;6.53;;;2.92;;
66145;SDS011;52948;60.040;30.320;2023-05-10T20:32:13;7.45;;;3.80;;
66145;SDS011;52948;60.040;30.320;2023-05-10T20:37:16;5.70;;;2.72;;
66145;SDS011;52948;60.040;30.320;2023-05-10T20:42:19;7.95;;;2.83;;
66145;SDS011;52948;60.040;30.320;2023-05-10T20:47:22;5.47;;;3.05;;
66145;SDS011;52948;60.040;30.320;2023-05-10T20:52:26;5.38;;;3.10;;
66145;SDS011;52948;60.040;30.320;2023-05-10T20:57:28;4.82;;;2.75;;
66145;SDS011;52948;60.040;30.320;2023-05-10T21:02:30;7.30;;;3.33;;
66145;SDS011;52948;60.040;30.320;2023-05-10T21:07:32;7.55;;;3.10;;
66145;SDS011;52948;60.040;30.320;2023-05-10T21:12:34;3.67;;;2.70;;
66145;SDS011;52948;60.040;30.320;2023-05-10T21:17:37;5.78;;;3.03;;
66145;SDS011;52948;60.040;30.320;2023-05-10T21:22:39;4.22;;;3.05;;
66145;SDS011;52948;60.040;30.320;2023-05-10T21:27:42;10.93;;;3.20;;
66145;SDS011;52948;60.040;30.320;2023-05-10T21:32:44;5.28;;;3.25;;
66145;SDS011;52948;60.040;30.320;2023-05-10T21:37:47;6.05;;;2.85;;
66145;SDS011;52948;60.040;30.320;2023-05-10T21:42:49;3.55;;;2.42;;
66145;SDS011;52948;60.040;30.320;2023-05-10T21:47:51;5.53;;;2.47;;
66145;SDS011;52948;60.040;30.320;2023-05-10T21:52:54;4.70;;;2.63;;
66145;SDS011;52948;60.040;30.320;2023-05-10T21:57:57;4.75;;;2.33;;
66145;SDS011;52948;60.040;30.320;2023-05-10T22:02:59;4.63;;;2.30;;
66145;SDS011;52948;60.040;30.320;2023-05-10T22:08:01;4.63;;;2.78;;
66145;SDS011;52948;60.040;30.320;2023-05-10T22:13:03;4.15;;;2.50;;
66145;SDS011;52948;60.040;30.320;2023-05-10T22:18:06;3.10;;;2.10;;
66145;SDS011;52948;60.040;30.320;2023-05-10T22:23:09;2.67;;;2.38;;
66145;SDS011;52948;60.040;30.320;2023-05-10T22:28:11;3.17;;;2.38;;
66145;SDS011;52948;60.040;30.320;2023-05-10T22:33:14;3.83;;;2.42;;
66145;SDS011;52948;60.040;30.320;2023-05-10T22:38:16;3.22;;;2.45;;
66145;SDS011;52948;60.040;30.320;2023-05-10T22:43:18;4.10;;;2.30;;
66145;SDS011;52948;60.040;30.320;2023-05-10T22:48:20;4.07;;;2.58;;
66145;SDS011;52948;60.040;30.320;2023-05-10T22:53:22;4.68;;;2.40;;
66145;SDS011;52948;60.040;30.320;2023-05-10T22:58:25;3.50;;;2.20;;
66145;SDS011;52948;60.040;30.320;2023-05-10T23:03:27;3.10;;;2.05;;
66145;SDS011;52948;60.040;30.320;2023-05-10T23:08:30;4.55;;;2.53;;
66145;SDS011;52948;60.040;30.320;2023-05-10T23:13:32;3.88;;;2.17;;
66145;SDS011;52948;60.040;30.320;2023-05-10T23:18:35;4.53;;;2.45;;
66145;SDS011;52948;60.040;30.320;2023-05-10T23:23:37;3.75;;;2.47;;
66145;SDS011;52948;60.040;30.320;2023-05-10T23:28:39;5.15;;;2.13;;
66145;SDS011;52948;60.040;30.320;2023-05-10T23:33:41;4.30;;;2.45;;
66145;SDS011;52948;60.040;30.320;2023-05-10T23:38:44;3.15;;;2.35;;
66145;SDS011;52948;60.040;30.320;2023-05-10T23:43:46;4.47;;;2.88;;
66145;SDS011;52948;60.040;30.320;2023-05-10T23:48:48;3.08;;;2.20;;
66145;SDS011;52948;60.040;30.320;2023-05-10T23:53:50;3.95;;;2.35;;
66145;SDS011;52948;60.040;30.320;2023-05-10T23:58:53;5.20;;;2.45;;
